sensor_id;sensor_type;location;lat;lon;timestamp;temperature;humidity
8487;DHT22;4280;50.534;8.708;2022-07-06T00:02:06;16.50;18.90
8487;DHT22;4280;50.534;8.708;2022-07-06T00:04:37;16.40;18.80
8487;DHT22;4280;50.534;8.708;2022-07-06T00:07:07;16.30;19.80
8487;DHT22;4280;50.534;8.708;2022-07-06T00:09:37;16.30;20.90
8487;DHT22;4280;50.534;8.708;2022-07-06T00:12:07;16.10;22.20
8487;DHT22;4280;50.534;8.708;2022-07-06T00:14:41;16.00;23.60
8487;DHT22;4280;50.534;8.708;2022-07-06T00:17:12;15.90;25.50
8487;DHT22;4280;50.534;8.708;2022-07-06T00:19:43;15.60;26.50
8487;DHT22;4280;50.534;8.708;2022-07-06T00:22:13;15.60;28.30
8487;DHT22;4280;50.534;8.708;2022-07-06T00:24:44;15.50;28.20
8487;DHT22;4280;50.534;8.708;2022-07-06T00:27:14;15.50;28.20
8487;DHT22;4280;50.534;8.708;2022-07-06T00:29:48;15.50;28.30
8487;DHT22;4280;50.534;8.708;2022-07-06T00:32:18;15.50;28.20
8487;DHT22;4280;50.534;8.708;2022-07-06T00:34:49;15.60;28.40
8487;DHT22;4280;50.534;8.708;2022-07-06T00:37:21;15.60;28.30
8487;DHT22;4280;50.534;8.708;2022-07-06T00:39:52;15.60;28.30
8487;DHT22;4280;50.534;8.708;2022-07-06T00:42:23;15.60;28.30
8487;DHT22;4280;50.534;8.708;2022-07-06T00:44:56;15.60;28.40
8487;DHT22;4280;50.534;8.708;2022-07-06T00:47:28;15.50;28.30
8487;DHT22;4280;50.534;8.708;2022-07-06T00:49:58;15.50;30.20
8487;DHT22;4280;50.534;8.708;2022-07-06T00:52:42;15.40;30.20
8487;DHT22;4280;50.534;8.708;2022-07-06T00:55:14;15.40;30.00
8487;DHT22;4280;50.534;8.708;2022-07-06T00:57:47;15.30;32.00
8487;DHT22;4280;50.534;8.708;2022-07-06T01:00:24;15.30;32.80
8487;DHT22;4280;50.534;8.708;2022-07-06T01:02:55;15.20;33.60
8487;DHT22;4280;50.534;8.708;2022-07-06T01:05:26;15.10;34.60
8487;DHT22;4280;50.534;8.708;2022-07-06T01:07:58;15.00;35.40
8487;DHT22;4280;50.534;8.708;2022-07-06T01:10:30;14.90;36.20
8487;DHT22;4280;50.534;8.708;2022-07-06T01:13:01;14.80;38.60
8487;DHT22;4280;50.534;8.708;2022-07-06T01:15:34;14.70;39.60
8487;DHT22;4280;50.534;8.708;2022-07-06T01:18:06;14.50;42.00
8487;DHT22;4280;50.534;8.708;2022-07-06T01:20:43;14.40;43.70
8487;DHT22;4280;50.534;8.708;2022-07-06T01:23:14;14.40;45.10
8487;DHT22;4280;50.534;8.708;2022-07-06T01:25:45;14.30;45.50
8487;DHT22;4280;50.534;8.708;2022-07-06T01:28:15;14.30;46.80
8487;DHT22;4280;50.534;8.708;2022-07-06T01:30:46;14.30;45.90
8487;DHT22;4280;50.534;8.708;2022-07-06T01:33:17;14.30;44.50
8487;DHT22;4280;50.534;8.708;2022-07-06T01:35:51;14.40;44.50
8487;DHT22;4280;50.534;8.708;2022-07-06T01:38:23;14.40;45.20
8487;DHT22;4280;50.534;8.708;2022-07-06T01:40:57;14.60;43.50
8487;DHT22;4280;50.534;8.708;2022-07-06T01:43:28;14.80;41.20
8487;DHT22;4280;50.534;8.708;2022-07-06T01:45:59;14.90;39.70
8487;DHT22;4280;50.534;8.708;2022-07-06T01:48:30;15.00;39.80
8487;DHT22;4280;50.534;8.708;2022-07-06T01:51:03;14.90;39.70
8487;DHT22;4280;50.534;8.708;2022-07-06T01:53:35;14.80;40.00
8487;DHT22;4280;50.534;8.708;2022-07-06T01:56:07;14.70;41.60
8487;DHT22;4280;50.534;8.708;2022-07-06T01:58:39;14.60;42.70
8487;DHT22;4280;50.534;8.708;2022-07-06T02:01:12;14.50;44.00
8487;DHT22;4280;50.534;8.708;2022-07-06T02:03:45;14.40;45.10
8487;DHT22;4280;50.534;8.708;2022-07-06T02:06:21;14.40;45.50
8487;DHT22;4280;50.534;8.708;2022-07-06T02:08:53;14.40;46.80
8487;DHT22;4280;50.534;8.708;2022-07-06T02:11:26;14.30;47.80
8487;DHT22;4280;50.534;8.708;2022-07-06T02:14:01;14.20;48.70
8487;DHT22;4280;50.534;8.708;2022-07-06T02:16:33;14.20;50.60
8487;DHT22;4280;50.534;8.708;2022-07-06T02:19:05;14.10;51.20
8487;DHT22;4280;50.534;8.708;2022-07-06T02:21:39;13.90;52.00
8487;DHT22;4280;50.534;8.708;2022-07-06T02:24:12;13.60;59.60
8487;DHT22;4280;50.534;8.708;2022-07-06T02:26:45;13.40;56.50
8487;DHT22;4280;50.534;8.708;2022-07-06T02:29:18;13.30;57.90
8487;DHT22;4280;50.534;8.708;2022-07-06T02:31:51;13.10;61.90
8487;DHT22;4280;50.534;8.708;2022-07-06T02:34:24;13.00;62.80
8487;DHT22;4280;50.534;8.708;2022-07-06T02:37:00;13.00;63.80
8487;DHT22;4280;50.534;8.708;2022-07-06T02:39:33;13.20;63.90
8487;DHT22;4280;50.534;8.708;2022-07-06T02:42:05;13.30;62.10
8487;DHT22;4280;50.534;8.708;2022-07-06T02:44:38;13.30;62.10
8487;DHT22;4280;50.534;8.708;2022-07-06T02:47:09;13.40;62.30
8487;DHT22;4280;50.534;8.708;2022-07-06T02:49:42;13.50;62.30
8487;DHT22;4280;50.534;8.708;2022-07-06T02:52:19;13.60;62.40
8487;DHT22;4280;50.534;8.708;2022-07-06T02:54:52;13.60;61.80
8487;DHT22;4280;50.534;8.708;2022-07-06T02:57:25;13.60;61.00
8487;DHT22;4280;50.534;8.708;2022-07-06T02:59:58;13.70;62.60
8487;DHT22;4280;50.534;8.708;2022-07-06T03:02:31;13.60;62.50
8487;DHT22;4280;50.534;8.708;2022-07-06T03:05:05;13.60;62.40
8487;DHT22;4280;50.534;8.708;2022-07-06T03:07:40;13.70;62.50
8487;DHT22;4280;50.534;8.708;2022-07-06T03:10:10;13.70;62.50
8487;DHT22;4280;50.534;8.708;2022-07-06T03:12:41;13.60;62.50
8487;DHT22;4280;50.534;8.708;2022-07-06T03:15:12;13.60;62.40
8487;DHT22;4280;50.534;8.708;2022-07-06T03:17:46;13.60;63.10
8487;DHT22;4280;50.534;8.708;2022-07-06T03:20:19;13.60;64.80
8487;DHT22;4280;50.534;8.708;2022-07-06T03:22:55;13.70;64.60
8487;DHT22;4280;50.534;8.708;2022-07-06T03:25:27;13.60;64.80
8487;DHT22;4280;50.534;8.708;2022-07-06T03:28:02;13.60;65.00
8487;DHT22;4280;50.534;8.708;2022-07-06T03:30:34;13.60;65.70
8487;DHT22;4280;50.534;8.708;2022-07-06T03:33:06;13.50;65.20
8487;DHT22;4280;50.534;8.708;2022-07-06T03:35:40;13.50;65.40
8487;DHT22;4280;50.534;8.708;2022-07-06T03:38:15;13.40;66.20
8487;DHT22;4280;50.534;8.708;2022-07-06T03:40:48;13.50;65.50
8487;DHT22;4280;50.534;8.708;2022-07-06T03:43:20;13.50;66.50
8487;DHT22;4280;50.534;8.708;2022-07-06T03:45:53;13.50;66.20
8487;DHT22;4280;50.534;8.708;2022-07-06T03:48:24;13.50;66.30
8487;DHT22;4280;50.534;8.708;2022-07-06T03:50:55;13.50;66.10
8487;DHT22;4280;50.534;8.708;2022-07-06T03:53:28;13.50;66.60
8487;DHT22;4280;50.534;8.708;2022-07-06T03:55:58;13.50;67.00
8487;DHT22;4280;50.534;8.708;2022-07-06T03:58:40;13.50;67.90
8487;DHT22;4280;50.534;8.708;2022-07-06T04:01:12;13.60;67.00
8487;DHT22;4280;50.534;8.708;2022-07-06T04:03:44;13.70;65.40
8487;DHT22;4280;50.534;8.708;2022-07-06T04:06:16;13.70;65.60
8487;DHT22;4280;50.534;8.708;2022-07-06T04:08:50;13.70;65.00
8487;DHT22;4280;50.534;8.708;2022-07-06T04:11:21;13.80;62.60
8487;DHT22;4280;50.534;8.708;2022-07-06T04:13:51;13.90;62.70
8487;DHT22;4280;50.534;8.708;2022-07-06T04:16:22;14.00;62.00
8487;DHT22;4280;50.534;8.708;2022-07-06T04:18:52;14.10;61.20
8487;DHT22;4280;50.534;8.708;2022-07-06T04:21:23;14.10;60.60
8487;DHT22;4280;50.534;8.708;2022-07-06T04:23:57;14.20;59.30
8487;DHT22;4280;50.534;8.708;2022-07-06T04:26:29;14.30;56.50
8487;DHT22;4280;50.534;8.708;2022-07-06T04:29:00;14.40;56.10
8487;DHT22;4280;50.534;8.708;2022-07-06T04:31:33;14.50;55.10
8487;DHT22;4280;50.534;8.708;2022-07-06T04:34:05;14.60;55.10
8487;DHT22;4280;50.534;8.708;2022-07-06T04:36:37;14.40;54.30
8487;DHT22;4280;50.534;8.708;2022-07-06T04:39:11;14.40;57.10
8487;DHT22;4280;50.534;8.708;2022-07-06T04:41:41;14.50;55.50
8487;DHT22;4280;50.534;8.708;2022-07-06T04:44:11;14.70;52.20
8487;DHT22;4280;50.534;8.708;2022-07-06T04:46:42;14.70;51.80
8487;DHT22;4280;50.534;8.708;2022-07-06T04:49:14;14.70;51.80
8487;DHT22;4280;50.534;8.708;2022-07-06T04:51:46;14.70;52.60
8487;DHT22;4280;50.534;8.708;2022-07-06T04:54:20;14.70;54.00
8487;DHT22;4280;50.534;8.708;2022-07-06T04:56:50;14.80;55.00
8487;DHT22;4280;50.534;8.708;2022-07-06T04:59:22;14.80;53.00
8487;DHT22;4280;50.534;8.708;2022-07-06T05:01:52;14.80;53.40
8487;DHT22;4280;50.534;8.708;2022-07-06T05:04:23;14.70;54.30
8487;DHT22;4280;50.534;8.708;2022-07-06T05:06:55;14.90;52.00
8487;DHT22;4280;50.534;8.708;2022-07-06T05:09:28;15.10;52.20
8487;DHT22;4280;50.534;8.708;2022-07-06T05:11:59;15.30;49.40
8487;DHT22;4280;50.534;8.708;2022-07-06T05:14:30;15.70;45.10
8487;DHT22;4280;50.534;8.708;2022-07-06T05:17:02;16.30;40.00
8487;DHT22;4280;50.534;8.708;2022-07-06T05:19:35;16.70;34.50
8487;DHT22;4280;50.534;8.708;2022-07-06T05:22:08;16.90;31.10
8487;DHT22;4280;50.534;8.708;2022-07-06T05:24:43;16.80;29.30
8487;DHT22;4280;50.534;8.708;2022-07-06T05:27:16;16.90;29.30
8487;DHT22;4280;50.534;8.708;2022-07-06T05:29:49;17.40;29.60
8487;DHT22;4280;50.534;8.708;2022-07-06T05:32:22;17.60;27.60
8487;DHT22;4280;50.534;8.708;2022-07-06T05:34:54;18.00;25.00
8487;DHT22;4280;50.534;8.708;2022-07-06T05:37:38;18.20;22.70
8487;DHT22;4280;50.534;8.708;2022-07-06T05:40:14;18.00;22.20
8487;DHT22;4280;50.534;8.708;2022-07-06T05:42:47;18.00;23.60
8487;DHT22;4280;50.534;8.708;2022-07-06T05:45:19;17.80;23.90
8487;DHT22;4280;50.534;8.708;2022-07-06T05:47:53;17.90;24.40
8487;DHT22;4280;50.534;8.708;2022-07-06T05:50:38;18.10;21.70
8487;DHT22;4280;50.534;8.708;2022-07-06T05:53:11;18.60;20.40
8487;DHT22;4280;50.534;8.708;2022-07-06T05:55:50;18.30;20.20
8487;DHT22;4280;50.534;8.708;2022-07-06T05:58:21;18.20;20.10
8487;DHT22;4280;50.534;8.708;2022-07-06T06:00:55;18.90;18.80
8487;DHT22;4280;50.534;8.708;2022-07-06T06:03:26;19.70;14.80
8487;DHT22;4280;50.534;8.708;2022-07-06T06:05:56;19.20;16.10
8487;DHT22;4280;50.534;8.708;2022-07-06T06:08:27;19.20;15.70
8487;DHT22;4280;50.534;8.708;2022-07-06T06:11:02;19.30;14.10
8487;DHT22;4280;50.534;8.708;2022-07-06T06:13:36;18.60;16.60
8487;DHT22;4280;50.534;8.708;2022-07-06T06:16:06;18.90;15.80
8487;DHT22;4280;50.534;8.708;2022-07-06T06:18:37;19.10;15.60
8487;DHT22;4280;50.534;8.708;2022-07-06T06:21:08;18.90;15.70
8487;DHT22;4280;50.534;8.708;2022-07-06T06:23:39;19.60;13.70
8487;DHT22;4280;50.534;8.708;2022-07-06T06:26:12;19.70;10.80
8487;DHT22;4280;50.534;8.708;2022-07-06T06:28:43;19.30;10.90
8487;DHT22;4280;50.534;8.708;2022-07-06T06:31:13;19.20;13.40
8487;DHT22;4280;50.534;8.708;2022-07-06T06:33:45;19.90;10.80
8487;DHT22;4280;50.534;8.708;2022-07-06T06:36:15;18.90;12.90
8487;DHT22;4280;50.534;8.708;2022-07-06T06:38:46;19.00;14.60
8487;DHT22;4280;50.534;8.708;2022-07-06T06:41:22;18.80;15.40
8487;DHT22;4280;50.534;8.708;2022-07-06T06:43:59;18.90;14.20
8487;DHT22;4280;50.534;8.708;2022-07-06T06:46:38;18.20;15.50
8487;DHT22;4280;50.534;8.708;2022-07-06T06:49:08;17.40;19.50
8487;DHT22;4280;50.534;8.708;2022-07-06T06:51:38;17.50;19.60
8487;DHT22;4280;50.534;8.708;2022-07-06T06:54:09;18.20;17.90
8487;DHT22;4280;50.534;8.708;2022-07-06T06:56:42;18.10;16.50
8487;DHT22;4280;50.534;8.708;2022-07-06T06:59:13;18.10;18.00
8487;DHT22;4280;50.534;8.708;2022-07-06T07:01:44;17.80;16.90
8487;DHT22;4280;50.534;8.708;2022-07-06T07:04:16;18.10;15.90
8487;DHT22;4280;50.534;8.708;2022-07-06T07:06:46;17.40;17.20
8487;DHT22;4280;50.534;8.708;2022-07-06T07:09:16;17.60;17.40
8487;DHT22;4280;50.534;8.708;2022-07-06T07:11:49;17.60;19.70
8487;DHT22;4280;50.534;8.708;2022-07-06T07:14:18;18.10;15.90
8487;DHT22;4280;50.534;8.708;2022-07-06T07:16:48;17.70;16.60
8487;DHT22;4280;50.534;8.708;2022-07-06T07:19:18;17.70;15.90
8487;DHT22;4280;50.534;8.708;2022-07-06T07:21:48;17.70;18.70
8487;DHT22;4280;50.534;8.708;2022-07-06T07:24:18;17.20;15.50
8487;DHT22;4280;50.534;8.708;2022-07-06T07:26:51;17.30;16.70
8487;DHT22;4280;50.534;8.708;2022-07-06T07:29:21;17.70;16.30
8487;DHT22;4280;50.534;8.708;2022-07-06T07:31:51;18.00;14.80
8487;DHT22;4280;50.534;8.708;2022-07-06T07:34:22;18.20;13.50
8487;DHT22;4280;50.534;8.708;2022-07-06T07:36:53;18.40;12.80
8487;DHT22;4280;50.534;8.708;2022-07-06T07:39:23;18.20;13.10
8487;DHT22;4280;50.534;8.708;2022-07-06T07:41:55;18.20;13.10
8487;DHT22;4280;50.534;8.708;2022-07-06T07:44:25;17.90;13.20
8487;DHT22;4280;50.534;8.708;2022-07-06T07:46:56;18.00;12.20
8487;DHT22;4280;50.534;8.708;2022-07-06T07:49:27;18.20;12.10
8487;DHT22;4280;50.534;8.708;2022-07-06T07:51:57;18.90;10.20
8487;DHT22;4280;50.534;8.708;2022-07-06T07:54:26;18.40;9.70
8487;DHT22;4280;50.534;8.708;2022-07-06T07:56:59;18.20;9.90
8487;DHT22;4280;50.534;8.708;2022-07-06T07:59:29;18.00;9.70
8487;DHT22;4280;50.534;8.708;2022-07-06T08:01:59;18.20;10.90
8487;DHT22;4280;50.534;8.708;2022-07-06T08:04:29;19.00;8.60
8487;DHT22;4280;50.534;8.708;2022-07-06T08:06:59;18.90;4.70
8487;DHT22;4280;50.534;8.708;2022-07-06T08:09:28;18.40;4.40
8487;DHT22;4280;50.534;8.708;2022-07-06T08:12:01;18.20;4.20
8487;DHT22;4280;50.534;8.708;2022-07-06T08:14:31;18.20;5.70
8487;DHT22;4280;50.534;8.708;2022-07-06T08:17:01;18.50;4.40
8487;DHT22;4280;50.534;8.708;2022-07-06T08:19:32;18.80;4.60
8487;DHT22;4280;50.534;8.708;2022-07-06T08:22:02;19.00;4.80
8487;DHT22;4280;50.534;8.708;2022-07-06T08:24:33;19.10;4.70
8487;DHT22;4280;50.534;8.708;2022-07-06T08:27:06;18.90;4.00
8487;DHT22;4280;50.534;8.708;2022-07-06T08:29:36;18.70;4.60
8487;DHT22;4280;50.534;8.708;2022-07-06T08:32:06;18.30;4.30
8487;DHT22;4280;50.534;8.708;2022-07-06T08:34:39;18.50;4.40
8487;DHT22;4280;50.534;8.708;2022-07-06T08:37:11;18.70;4.60
8487;DHT22;4280;50.534;8.708;2022-07-06T08:39:41;18.90;3.80
8487;DHT22;4280;50.534;8.708;2022-07-06T08:42:14;18.80;2.80
8487;DHT22;4280;50.534;8.708;2022-07-06T08:44:45;18.80;1.60
8487;DHT22;4280;50.534;8.708;2022-07-06T08:47:17;18.90;1.00
8487;DHT22;4280;50.534;8.708;2022-07-06T08:49:48;18.90;1.00
8487;DHT22;4280;50.534;8.708;2022-07-06T08:52:18;19.00;1.00
8487;DHT22;4280;50.534;8.708;2022-07-06T08:54:49;19.30;1.00
8487;DHT22;4280;50.534;8.708;2022-07-06T08:57:23;19.30;1.70
8487;DHT22;4280;50.534;8.708;2022-07-06T08:59:54;19.10;1.00
8487;DHT22;4280;50.534;8.708;2022-07-06T09:02:24;19.20;1.00
8487;DHT22;4280;50.534;8.708;2022-07-06T09:04:55;19.00;1.00
8487;DHT22;4280;50.534;8.708;2022-07-06T09:07:27;18.80;1.00
8487;DHT22;4280;50.534;8.708;2022-07-06T09:10:19;18.50;1.00
8487;DHT22;4280;50.534;8.708;2022-07-06T09:12:52;18.90;1.00
8487;DHT22;4280;50.534;8.708;2022-07-06T09:15:23;19.00;1.00
8487;DHT22;4280;50.534;8.708;2022-07-06T09:17:53;19.00;1.00
8487;DHT22;4280;50.534;8.708;2022-07-06T09:20:25;19.30;1.00
8487;DHT22;4280;50.534;8.708;2022-07-06T09:22:58;19.80;1.00
8487;DHT22;4280;50.534;8.708;2022-07-06T09:25:30;19.80;1.00
8487;DHT22;4280;50.534;8.708;2022-07-06T09:28:03;19.30;1.00
8487;DHT22;4280;50.534;8.708;2022-07-06T09:30:33;18.80;1.00
8487;DHT22;4280;50.534;8.708;2022-07-06T09:33:06;19.30;1.00
8487;DHT22;4280;50.534;8.708;2022-07-06T09:35:39;19.90;1.00
8487;DHT22;4280;50.534;8.708;2022-07-06T09:38:12;20.10;1.00
8487;DHT22;4280;50.534;8.708;2022-07-06T09:40:45;20.30;1.00
8487;DHT22;4280;50.534;8.708;2022-07-06T09:43:19;20.00;1.00
8487;DHT22;4280;50.534;8.708;2022-07-06T09:45:52;19.60;1.00
8487;DHT22;4280;50.534;8.708;2022-07-06T09:48:24;20.30;1.00
8487;DHT22;4280;50.534;8.708;2022-07-06T09:50:55;19.60;1.00
8487;DHT22;4280;50.534;8.708;2022-07-06T09:53:29;19.40;1.00
8487;DHT22;4280;50.534;8.708;2022-07-06T09:55:59;19.20;1.00
8487;DHT22;4280;50.534;8.708;2022-07-06T09:58:34;18.90;1.00
8487;DHT22;4280;50.534;8.708;2022-07-06T10:01:27;19.20;1.00
8487;DHT22;4280;50.534;8.708;2022-07-06T10:03:58;19.40;1.00
8487;DHT22;4280;50.534;8.708;2022-07-06T10:06:28;19.20;1.00
8487;DHT22;4280;50.534;8.708;2022-07-06T10:08:58;19.60;1.00
8487;DHT22;4280;50.534;8.708;2022-07-06T10:11:29;20.10;1.00
8487;DHT22;4280;50.534;8.708;2022-07-06T10:14:02;20.20;1.00
8487;DHT22;4280;50.534;8.708;2022-07-06T10:16:35;20.30;1.00
8487;DHT22;4280;50.534;8.708;2022-07-06T10:19:07;19.40;1.00
8487;DHT22;4280;50.534;8.708;2022-07-06T10:21:39;19.40;1.00
8487;DHT22;4280;50.534;8.708;2022-07-06T10:24:11;19.30;1.00
8487;DHT22;4280;50.534;8.708;2022-07-06T10:26:42;19.50;1.00
8487;DHT22;4280;50.534;8.708;2022-07-06T10:29:15;19.40;1.00
8487;DHT22;4280;50.534;8.708;2022-07-06T10:31:47;19.90;1.00
8487;DHT22;4280;50.534;8.708;2022-07-06T10:34:19;20.20;1.00
8487;DHT22;4280;50.534;8.708;2022-07-06T10:36:49;20.30;1.00
8487;DHT22;4280;50.534;8.708;2022-07-06T10:39:34;20.80;1.00
8487;DHT22;4280;50.534;8.708;2022-07-06T10:45:20;21.80;1.00
8487;DHT22;4280;50.534;8.708;2022-07-06T10:48:21;20.70;1.00
8487;DHT22;4280;50.534;8.708;2022-07-06T10:50:53;19.80;1.00
8487;DHT22;4280;50.534;8.708;2022-07-06T10:53:27;19.70;1.00
8487;DHT22;4280;50.534;8.708;2022-07-06T10:56:00;20.00;1.00
8487;DHT22;4280;50.534;8.708;2022-07-06T10:58:40;20.30;1.00
8487;DHT22;4280;50.534;8.708;2022-07-06T11:01:15;20.80;1.00
8487;DHT22;4280;50.534;8.708;2022-07-06T11:03:45;21.20;1.00
8487;DHT22;4280;50.534;8.708;2022-07-06T11:06:16;21.30;1.00
8487;DHT22;4280;50.534;8.708;2022-07-06T11:08:50;21.70;1.00
8487;DHT22;4280;50.534;8.708;2022-07-06T11:11:23;21.70;1.00
8487;DHT22;4280;50.534;8.708;2022-07-06T11:13:55;21.50;1.00
8487;DHT22;4280;50.534;8.708;2022-07-06T11:16:32;21.80;1.00
8487;DHT22;4280;50.534;8.708;2022-07-06T11:19:07;21.90;1.00
8487;DHT22;4280;50.534;8.708;2022-07-06T11:21:38;21.50;1.00
8487;DHT22;4280;50.534;8.708;2022-07-06T11:24:10;22.10;1.00
8487;DHT22;4280;50.534;8.708;2022-07-06T11:26:41;22.90;1.00
8487;DHT22;4280;50.534;8.708;2022-07-06T11:29:14;22.70;1.00
8487;DHT22;4280;50.534;8.708;2022-07-06T11:31:52;21.70;1.00
8487;DHT22;4280;50.534;8.708;2022-07-06T11:34:24;21.60;1.00
8487;DHT22;4280;50.534;8.708;2022-07-06T11:36:57;21.60;1.00
8487;DHT22;4280;50.534;8.708;2022-07-06T11:39:30;21.90;1.00
8487;DHT22;4280;50.534;8.708;2022-07-06T11:44:49;21.30;1.00
8487;DHT22;4280;50.534;8.708;2022-07-06T11:47:21;21.20;1.00
8487;DHT22;4280;50.534;8.708;2022-07-06T11:50:01;21.60;1.00
8487;DHT22;4280;50.534;8.708;2022-07-06T11:52:30;21.50;1.00
8487;DHT22;4280;50.534;8.708;2022-07-06T11:55:01;20.80;1.00
8487;DHT22;4280;50.534;8.708;2022-07-06T11:57:32;21.00;1.00
8487;DHT22;4280;50.534;8.708;2022-07-06T12:00:02;21.60;1.00
8487;DHT22;4280;50.534;8.708;2022-07-06T12:02:42;20.90;1.00
8487;DHT22;4280;50.534;8.708;2022-07-06T12:05:29;20.50;1.00
8487;DHT22;4280;50.534;8.708;2022-07-06T12:08:03;20.50;1.00
8487;DHT22;4280;50.534;8.708;2022-07-06T12:10:35;20.80;1.00
8487;DHT22;4280;50.534;8.708;2022-07-06T12:13:06;21.10;1.00
8487;DHT22;4280;50.534;8.708;2022-07-06T12:15:37;21.30;1.00
8487;DHT22;4280;50.534;8.708;2022-07-06T12:18:11;21.70;1.00
8487;DHT22;4280;50.534;8.708;2022-07-06T12:20:43;21.80;1.00
8487;DHT22;4280;50.534;8.708;2022-07-06T12:23:15;22.20;1.00
8487;DHT22;4280;50.534;8.708;2022-07-06T12:25:48;22.50;1.00
8487;DHT22;4280;50.534;8.708;2022-07-06T12:28:23;21.90;1.00
8487;DHT22;4280;50.534;8.708;2022-07-06T12:30:55;21.70;1.00
8487;DHT22;4280;50.534;8.708;2022-07-06T12:33:28;21.40;1.00
8487;DHT22;4280;50.534;8.708;2022-07-06T12:36:08;21.50;1.00
8487;DHT22;4280;50.534;8.708;2022-07-06T12:38:43;21.10;1.00
8487;DHT22;4280;50.534;8.708;2022-07-06T12:41:29;21.40;1.00
8487;DHT22;4280;50.534;8.708;2022-07-06T12:44:05;21.20;1.00
8487;DHT22;4280;50.534;8.708;2022-07-06T12:46:37;21.60;1.00
8487;DHT22;4280;50.534;8.708;2022-07-06T12:49:16;21.50;1.00
8487;DHT22;4280;50.534;8.708;2022-07-06T12:51:51;22.10;1.00
8487;DHT22;4280;50.534;8.708;2022-07-06T12:54:23;21.90;1.00
8487;DHT22;4280;50.534;8.708;2022-07-06T12:56:58;22.20;1.00
8487;DHT22;4280;50.534;8.708;2022-07-06T12:59:34;22.30;1.00
8487;DHT22;4280;50.534;8.708;2022-07-06T13:02:07;22.70;1.00
8487;DHT22;4280;50.534;8.708;2022-07-06T13:04:40;22.80;1.00
8487;DHT22;4280;50.534;8.708;2022-07-06T13:07:17;22.30;1.00
8487;DHT22;4280;50.534;8.708;2022-07-06T13:09:48;22.50;1.00
8487;DHT22;4280;50.534;8.708;2022-07-06T13:12:19;22.90;1.00
8487;DHT22;4280;50.534;8.708;2022-07-06T13:14:50;23.00;1.00
8487;DHT22;4280;50.534;8.708;2022-07-06T13:17:21;22.80;1.00
8487;DHT22;4280;50.534;8.708;2022-07-06T13:19:54;22.90;1.00
8487;DHT22;4280;50.534;8.708;2022-07-06T13:22:25;23.00;1.00
8487;DHT22;4280;50.534;8.708;2022-07-06T13:24:57;22.70;1.00
8487;DHT22;4280;50.534;8.708;2022-07-06T13:27:28;23.00;1.00
8487;DHT22;4280;50.534;8.708;2022-07-06T13:30:01;23.20;1.00
8487;DHT22;4280;50.534;8.708;2022-07-06T13:32:33;23.30;1.00
8487;DHT22;4280;50.534;8.708;2022-07-06T13:35:10;23.00;1.00
8487;DHT22;4280;50.534;8.708;2022-07-06T13:37:41;22.70;1.00
8487;DHT22;4280;50.534;8.708;2022-07-06T13:40:15;23.00;1.00
8487;DHT22;4280;50.534;8.708;2022-07-06T13:42:47;22.40;1.00
8487;DHT22;4280;50.534;8.708;2022-07-06T13:45:22;22.30;1.00
8487;DHT22;4280;50.534;8.708;2022-07-06T13:47:55;21.70;1.00
8487;DHT22;4280;50.534;8.708;2022-07-06T13:50:29;22.20;1.00
8487;DHT22;4280;50.534;8.708;2022-07-06T13:53:02;22.20;1.00
8487;DHT22;4280;50.534;8.708;2022-07-06T13:55:33;22.10;1.00
8487;DHT22;4280;50.534;8.708;2022-07-06T13:58:07;22.00;1.00
8487;DHT22;4280;50.534;8.708;2022-07-06T14:00:39;22.50;1.00
8487;DHT22;4280;50.534;8.708;2022-07-06T14:03:11;23.00;1.00
8487;DHT22;4280;50.534;8.708;2022-07-06T14:05:46;22.60;1.00
8487;DHT22;4280;50.534;8.708;2022-07-06T14:08:18;22.10;1.00
8487;DHT22;4280;50.534;8.708;2022-07-06T14:10:50;21.80;1.00
8487;DHT22;4280;50.534;8.708;2022-07-06T14:13:22;22.10;1.00
8487;DHT22;4280;50.534;8.708;2022-07-06T14:15:54;22.60;1.00
8487;DHT22;4280;50.534;8.708;2022-07-06T14:18:27;22.60;1.00
8487;DHT22;4280;50.534;8.708;2022-07-06T14:21:01;22.50;1.00
8487;DHT22;4280;50.534;8.708;2022-07-06T14:23:34;21.80;1.00
8487;DHT22;4280;50.534;8.708;2022-07-06T14:26:06;21.90;1.00
8487;DHT22;4280;50.534;8.708;2022-07-06T14:28:38;21.40;1.00
8487;DHT22;4280;50.534;8.708;2022-07-06T14:31:10;21.50;1.00
8487;DHT22;4280;50.534;8.708;2022-07-06T14:34:01;21.30;1.00
8487;DHT22;4280;50.534;8.708;2022-07-06T14:36:34;21.50;1.00
8487;DHT22;4280;50.534;8.708;2022-07-06T14:39:05;21.70;1.00
8487;DHT22;4280;50.534;8.708;2022-07-06T14:41:35;21.80;1.00
8487;DHT22;4280;50.534;8.708;2022-07-06T14:44:05;21.80;1.00
8487;DHT22;4280;50.534;8.708;2022-07-06T14:46:35;22.30;1.00
8487;DHT22;4280;50.534;8.708;2022-07-06T14:49:06;22.10;1.00
8487;DHT22;4280;50.534;8.708;2022-07-06T14:51:38;22.30;1.00
8487;DHT22;4280;50.534;8.708;2022-07-06T14:54:08;22.20;1.00
8487;DHT22;4280;50.534;8.708;2022-07-06T14:56:38;22.40;1.00
8487;DHT22;4280;50.534;8.708;2022-07-06T14:59:08;22.00;1.00
8487;DHT22;4280;50.534;8.708;2022-07-06T15:01:49;21.90;1.00
8487;DHT22;4280;50.534;8.708;2022-07-06T15:04:19;21.70;1.00
8487;DHT22;4280;50.534;8.708;2022-07-06T15:06:52;21.70;1.00
8487;DHT22;4280;50.534;8.708;2022-07-06T15:09:23;21.80;1.00
8487;DHT22;4280;50.534;8.708;2022-07-06T15:11:55;21.40;1.00
8487;DHT22;4280;50.534;8.708;2022-07-06T15:14:25;21.40;1.00
8487;DHT22;4280;50.534;8.708;2022-07-06T15:16:55;21.90;1.00
8487;DHT22;4280;50.534;8.708;2022-07-06T15:19:25;21.90;1.00
8487;DHT22;4280;50.534;8.708;2022-07-06T15:21:57;21.40;1.00
8487;DHT22;4280;50.534;8.708;2022-07-06T15:24:27;21.60;1.00
8487;DHT22;4280;50.534;8.708;2022-07-06T15:26:57;21.50;1.00
8487;DHT22;4280;50.534;8.708;2022-07-06T15:29:27;21.30;1.00
8487;DHT22;4280;50.534;8.708;2022-07-06T15:31:57;21.20;1.00
8487;DHT22;4280;50.534;8.708;2022-07-06T15:34:27;21.50;1.00
8487;DHT22;4280;50.534;8.708;2022-07-06T15:37:00;21.60;1.00
8487;DHT22;4280;50.534;8.708;2022-07-06T15:39:30;21.60;1.00
8487;DHT22;4280;50.534;8.708;2022-07-06T15:42:00;21.90;1.00
8487;DHT22;4280;50.534;8.708;2022-07-06T15:44:30;22.10;1.00
8487;DHT22;4280;50.534;8.708;2022-07-06T15:47:03;22.30;1.00
8487;DHT22;4280;50.534;8.708;2022-07-06T15:49:34;22.00;1.00
8487;DHT22;4280;50.534;8.708;2022-07-06T15:52:07;21.80;1.00
8487;DHT22;4280;50.534;8.708;2022-07-06T15:54:39;21.40;1.00
8487;DHT22;4280;50.534;8.708;2022-07-06T15:57:10;21.20;1.00
8487;DHT22;4280;50.534;8.708;2022-07-06T15:59:41;21.40;1.00
8487;DHT22;4280;50.534;8.708;2022-07-06T16:02:12;21.60;1.00
8487;DHT22;4280;50.534;8.708;2022-07-06T16:04:43;21.80;1.00
8487;DHT22;4280;50.534;8.708;2022-07-06T16:07:17;21.70;1.00
8487;DHT22;4280;50.534;8.708;2022-07-06T16:10:03;22.00;1.00
8487;DHT22;4280;50.534;8.708;2022-07-06T16:12:35;22.00;1.00
8487;DHT22;4280;50.534;8.708;2022-07-06T16:15:06;21.80;1.00
8487;DHT22;4280;50.534;8.708;2022-07-06T16:17:37;22.00;1.00
8487;DHT22;4280;50.534;8.708;2022-07-06T16:20:09;21.70;1.00
8487;DHT22;4280;50.534;8.708;2022-07-06T16:22:43;22.10;1.00
8487;DHT22;4280;50.534;8.708;2022-07-06T16:25:15;22.10;1.00
8487;DHT22;4280;50.534;8.708;2022-07-06T16:27:48;22.00;1.00
8487;DHT22;4280;50.534;8.708;2022-07-06T16:30:20;22.00;1.00
8487;DHT22;4280;50.534;8.708;2022-07-06T16:32:53;22.20;1.00
8487;DHT22;4280;50.534;8.708;2022-07-06T16:35:25;22.50;1.00
8487;DHT22;4280;50.534;8.708;2022-07-06T16:38:00;22.90;1.00
8487;DHT22;4280;50.534;8.708;2022-07-06T16:40:31;23.10;1.00
8487;DHT22;4280;50.534;8.708;2022-07-06T16:43:03;23.40;1.00
8487;DHT22;4280;50.534;8.708;2022-07-06T16:45:35;23.30;1.00
8487;DHT22;4280;50.534;8.708;2022-07-06T16:48:07;23.10;1.00
8487;DHT22;4280;50.534;8.708;2022-07-06T16:50:39;22.90;1.00